createdAt,value
2023-11-12T00:01:34.260Z,1.50
2023-11-12T00:04:08.706Z,1.53
2023-11-12T00:06:48.115Z,1.60
2023-11-12T00:09:21.995Z,1.73
2023-11-12T00:11:54.634Z,1.97
2023-11-12T00:14:21.850Z,1.57
2023-11-12T00:17:00.338Z,1.27
2023-11-12T00:19:36.445Z,1.30
2023-11-12T00:22:08.000Z,1.80
2023-11-12T00:24:37.303Z,1.50
2023-11-12T00:27:07.048Z,1.90
2023-11-12T00:29:43.179Z,1.70
2023-11-12T00:32:12.391Z,2.07
2023-11-12T00:34:41.775Z,1.63
2023-11-12T00:37:11.689Z,1.60
2023-11-12T00:39:41.725Z,2.00
2023-11-12T00:42:10.005Z,2.00
2023-11-12T00:44:44.070Z,1.60
2023-11-12T00:47:14.196Z,2.43
2023-11-12T00:49:50.330Z,1.90
2023-11-12T00:52:30.530Z,4.10
2023-11-12T00:54:59.018Z,4.33
2023-11-12T00:57:32.697Z,4.30
2023-11-12T01:00:02.940Z,4.50
2023-11-12T01:02:34.082Z,2.73
2023-11-12T01:08:14.101Z,2.60
2023-11-12T01:10:42.489Z,2.77
2023-11-12T01:13:13.096Z,2.10
2023-11-12T01:15:45.961Z,2.30
2023-11-12T01:18:14.828Z,1.93
2023-11-12T01:20:44.974Z,1.83
2023-11-12T01:23:15.859Z,1.80
2023-11-12T01:25:44.668Z,2.60
2023-11-12T01:28:13.159Z,2.47
2023-11-12T01:30:42.872Z,2.50
2023-11-12T01:33:20.823Z,2.40
2023-11-12T01:35:58.508Z,1.70
2023-11-12T01:38:28.665Z,1.63
2023-11-12T01:41:04.996Z,1.60
2023-11-12T01:43:39.283Z,1.77
2023-11-12T01:46:08.863Z,1.80
2023-11-12T01:48:39.591Z,1.70
2023-11-12T01:51:15.288Z,1.83
2023-11-12T01:53:43.888Z,1.43
2023-11-12T01:56:21.299Z,1.47
2023-11-12T01:58:52.802Z,1.80
2023-11-12T02:01:25.061Z,1.50
2023-11-12T02:03:54.201Z,1.60
2023-11-12T02:06:25.510Z,1.40
2023-11-12T02:08:59.919Z,1.70
2023-11-12T02:11:28.641Z,1.60
2023-11-12T02:14:08.301Z,1.60
2023-11-12T02:16:41.205Z,1.60
2023-11-12T02:19:31.867Z,1.87
2023-11-12T02:21:59.225Z,1.50
2023-11-12T02:24:28.573Z,1.50
2023-11-12T02:26:58.603Z,1.50
2023-11-12T02:29:36.753Z,1.60
2023-11-12T02:32:10.115Z,1.60
2023-11-12T02:34:42.236Z,1.50
2023-11-12T02:37:12.069Z,1.60
2023-11-12T02:39:44.032Z,1.40
2023-11-12T02:42:23.146Z,1.33
2023-11-12T02:44:52.878Z,1.50
2023-11-12T02:47:23.176Z,2.03
2023-11-12T02:50:36.858Z,1.60
2023-11-12T02:53:10.880Z,1.73
2023-11-12T02:55:39.061Z,2.00
2023-11-12T02:58:15.230Z,1.80
2023-11-12T03:00:45.859Z,2.03
2023-11-12T03:03:15.935Z,1.80
2023-11-12T03:05:46.225Z,2.10
2023-11-12T03:08:17.132Z,1.90
2023-11-12T03:10:47.193Z,2.00
2023-11-12T03:13:23.025Z,1.83
2023-11-12T03:15:53.266Z,1.70
2023-11-12T03:18:53.588Z,1.80
2023-11-12T03:21:53.290Z,1.87
2023-11-12T03:24:45.168Z,1.70
2023-11-12T03:30:05.560Z,2.00
2023-11-12T03:32:46.233Z,1.83
2023-11-12T03:35:26.068Z,2.03
2023-11-12T03:38:07.706Z,2.10
2023-11-12T03:40:43.748Z,2.00
2023-11-12T03:43:44.953Z,2.10
2023-11-12T03:46:28.102Z,1.77
2023-11-12T03:48:57.507Z,2.00
2023-11-12T03:51:43.312Z,1.80
2023-11-12T03:54:16.405Z,1.73
2023-11-12T03:56:45.092Z,1.83
2023-11-12T03:59:27.113Z,2.30
2023-11-12T04:01:58.517Z,2.30
2023-11-12T04:04:40.778Z,2.17
2023-11-12T04:07:09.479Z,1.80
2023-11-12T04:09:54.560Z,2.30
2023-11-12T04:12:49.010Z,2.43
2023-11-12T04:15:33.814Z,2.20
2023-11-12T04:18:05.032Z,2.30
2023-11-12T04:20:34.269Z,1.83
2023-11-12T04:23:19.333Z,2.00
2023-11-12T04:25:50.534Z,1.93
2023-11-12T04:28:18.188Z,2.00
2023-11-12T04:30:45.495Z,2.27
2023-11-12T04:33:16.631Z,2.10
2023-11-12T04:35:50.765Z,2.80
2023-11-12T04:38:23.987Z,2.87
2023-11-12T04:40:58.432Z,2.50
2023-11-12T04:43:34.236Z,2.73
2023-11-12T04:46:03.483Z,2.80
2023-11-12T04:48:34.099Z,2.70
2023-11-12T04:51:11.022Z,2.30
2023-11-12T04:53:47.503Z,2.60
2023-11-12T04:56:19.481Z,2.77
2023-11-12T04:58:55.463Z,2.57
2023-11-12T05:01:26.562Z,2.60
2023-11-12T05:03:56.359Z,2.63
2023-11-12T05:06:30.818Z,2.57
2023-11-12T05:09:00.832Z,2.27
2023-11-12T05:11:28.770Z,2.33
2023-11-12T05:13:56.920Z,1.70
2023-11-12T05:16:27.906Z,1.70
2023-11-12T05:18:58.620Z,1.67
2023-11-12T05:21:25.801Z,1.67
2023-11-12T05:24:00.202Z,1.80
2023-11-12T05:26:30.883Z,1.60
2023-11-12T05:29:01.269Z,1.73
2023-11-12T05:31:30.382Z,1.80
2023-11-12T05:33:59.125Z,1.90
2023-11-12T05:36:29.231Z,1.70
2023-11-12T05:39:00.200Z,1.73
2023-11-12T05:41:35.741Z,1.80
2023-11-12T05:44:14.300Z,1.50
2023-11-12T05:46:45.272Z,1.70
2023-11-12T05:49:15.204Z,1.70
2023-11-12T05:51:45.269Z,1.70
2023-11-12T05:54:17.989Z,1.70
2023-11-12T05:56:49.267Z,1.60
2023-11-12T05:59:17.761Z,1.80
2023-11-12T06:01:46.901Z,1.70
2023-11-12T06:04:20.790Z,1.90
2023-11-12T06:06:52.080Z,1.80
2023-11-12T06:09:21.982Z,1.80
2023-11-12T06:11:52.168Z,1.90
2023-11-12T06:14:25.235Z,2.00
2023-11-12T06:16:55.994Z,1.97
2023-11-12T06:19:26.045Z,2.37
2023-11-12T06:22:07.564Z,1.63
2023-11-12T06:24:37.320Z,1.60
2023-11-12T06:27:11.215Z,1.73
2023-11-12T06:29:43.474Z,2.00
2023-11-12T06:32:15.083Z,2.10
2023-11-12T06:34:51.975Z,1.87
2023-11-12T06:37:22.259Z,1.50
2023-11-12T06:39:49.729Z,1.37
2023-11-12T06:42:16.990Z,1.53
2023-11-12T06:44:44.360Z,1.60
2023-11-12T06:47:19.636Z,1.83
2023-11-12T06:49:49.114Z,1.60
2023-11-12T06:52:20.670Z,1.50
2023-11-12T06:54:50.345Z,1.30
2023-11-12T06:57:18.108Z,1.90
2023-11-12T06:59:51.559Z,2.00
2023-11-12T07:02:21.434Z,2.50
2023-11-12T07:04:51.441Z,2.70
2023-11-12T07:07:22.462Z,2.13
2023-11-12T07:09:51.606Z,1.70
2023-11-12T07:12:21.919Z,1.40
2023-11-12T07:14:50.984Z,1.57
2023-11-12T07:17:20.089Z,1.50
2023-11-12T07:19:58.678Z,1.80
2023-11-12T07:22:30.481Z,1.70
2023-11-12T07:25:12.552Z,1.80
2023-11-12T07:27:46.798Z,1.20
2023-11-12T07:30:18.962Z,1.40
2023-11-12T07:32:50.602Z,1.60
2023-11-12T07:35:19.668Z,1.47
2023-11-12T07:37:59.336Z,1.40
2023-11-12T07:40:27.608Z,1.70
2023-11-12T07:43:04.577Z,1.60
2023-11-12T07:45:40.587Z,1.90
2023-11-12T07:48:16.679Z,1.63
2023-11-12T07:50:47.144Z,2.00
2023-11-12T07:53:16.905Z,2.70
2023-11-12T07:55:45.424Z,3.13
2023-11-12T07:58:13.624Z,2.80
2023-11-12T08:00:43.911Z,3.13
2023-11-12T08:03:22.641Z,3.30
2023-11-12T08:05:53.498Z,2.80
2023-11-12T08:08:25.043Z,2.67
2023-11-12T08:11:01.879Z,2.37
2023-11-12T08:13:30.178Z,2.00
2023-11-12T08:15:59.356Z,2.23
2023-11-12T08:18:31.641Z,2.40
2023-11-12T08:21:04.840Z,2.63
2023-11-12T08:23:35.555Z,2.13
2023-11-12T08:26:07.540Z,2.80
2023-11-12T08:28:38.755Z,2.80
2023-11-12T08:31:08.857Z,2.77
2023-11-12T08:33:40.780Z,2.83
2023-11-12T08:36:12.389Z,2.00
2023-11-12T08:38:49.344Z,2.10
2023-11-12T08:41:22.911Z,2.20
2023-11-12T08:43:51.262Z,2.60
2023-11-12T08:46:22.080Z,2.43
2023-11-12T08:48:50.580Z,2.20
2023-11-12T08:51:19.744Z,2.47
2023-11-12T08:53:52.724Z,2.77
2023-11-12T08:56:24.535Z,2.43
2023-11-12T08:58:57.847Z,2.50
2023-11-12T09:01:27.325Z,3.50
2023-11-12T09:03:54.770Z,3.53
2023-11-12T09:06:24.939Z,3.77
2023-11-12T09:08:54.688Z,3.20
2023-11-12T09:11:34.356Z,3.50
2023-11-12T09:14:06.251Z,3.23
2023-11-12T09:16:37.301Z,3.20
2023-11-12T09:19:08.388Z,3.43
2023-11-12T09:21:45.422Z,3.63
2023-11-12T09:24:16.184Z,3.60
2023-11-12T09:26:46.025Z,3.57
2023-11-12T09:29:15.635Z,3.53
2023-11-12T09:31:44.326Z,3.53
2023-11-12T09:34:13.962Z,3.70
2023-11-12T09:36:50.027Z,3.30
2023-11-12T09:39:19.595Z,3.90
2023-11-12T09:41:56.944Z,4.10
2023-11-12T09:44:32.666Z,3.90
2023-11-12T09:47:59.908Z,4.23
2023-11-12T09:50:31.645Z,3.50
2023-11-12T09:53:05.855Z,4.40
2023-11-12T09:55:36.206Z,4.13
2023-11-12T09:58:08.703Z,3.30
2023-11-12T10:00:40.371Z,3.60
2023-11-12T10:03:09.140Z,3.20
2023-11-12T10:05:45.151Z,3.97
2023-11-12T10:08:18.443Z,3.60
2023-11-12T10:10:52.974Z,3.27
2023-11-12T10:13:38.569Z,2.63
2023-11-12T10:16:34.441Z,3.07
2023-11-12T10:19:18.604Z,2.20
2023-11-12T10:22:13.461Z,3.00
2023-11-12T10:24:50.245Z,2.20
2023-11-12T10:27:21.580Z,2.30
2023-11-12T10:29:52.722Z,2.30
2023-11-12T10:32:27.230Z,2.47
2023-11-12T10:35:05.041Z,3.03
2023-11-12T10:37:32.404Z,3.13
2023-11-12T10:40:11.434Z,3.60
2023-11-12T10:42:42.267Z,3.83
2023-11-12T10:45:19.068Z,3.63
2023-11-12T10:47:56.471Z,3.40
2023-11-12T10:50:27.490Z,3.70
2023-11-12T10:52:58.184Z,4.10
2023-11-12T10:55:33.121Z,4.10
2023-11-12T10:58:05.312Z,3.10
2023-11-12T11:00:36.810Z,3.13
2023-11-12T11:03:10.660Z,3.30
2023-11-12T11:05:40.074Z,2.30
2023-11-12T11:08:09.956Z,2.60
2023-11-12T11:10:38.901Z,2.20
2023-11-12T11:13:09.440Z,1.40
2023-11-12T11:15:56.588Z,1.23
2023-11-12T11:18:53.106Z,1.17
2023-11-12T11:21:29.748Z,1.53
2023-11-12T11:24:00.403Z,1.30
2023-11-12T11:26:54.250Z,1.30
2023-11-12T11:29:27.217Z,1.17
2023-11-12T11:32:14.853Z,1.20
2023-11-12T11:34:47.061Z,1.43
2023-11-12T11:37:15.536Z,1.70
2023-11-12T11:39:45.579Z,1.50
2023-11-12T11:42:18.412Z,1.40
2023-11-12T11:44:51.980Z,1.50
2023-11-12T11:47:29.960Z,1.50
2023-11-12T11:50:46.959Z,1.33
2023-11-12T11:53:17.627Z,1.50
2023-11-12T11:59:01.685Z,1.30
2023-11-12T12:01:59.813Z,1.60
2023-11-12T12:04:34.021Z,1.30
2023-11-12T12:07:11.959Z,1.30
2023-11-12T12:09:49.030Z,1.50
2023-11-12T12:12:23.230Z,1.60
2023-11-12T12:14:54.844Z,1.50
2023-11-12T12:17:35.256Z,1.83
2023-11-12T12:20:06.756Z,1.40
2023-11-12T12:22:35.679Z,1.40
2023-11-12T12:25:06.659Z,1.50
2023-11-12T12:27:42.781Z,1.50
2023-11-12T12:30:18.016Z,1.40
2023-11-12T12:32:55.327Z,1.67
2023-11-12T12:35:25.444Z,1.73
2023-11-12T12:38:15.286Z,1.80
2023-11-12T12:40:50.230Z,1.47
2023-11-12T12:43:19.469Z,1.50
2023-11-12T12:46:01.611Z,1.60
2023-11-12T12:48:37.321Z,1.73
2023-11-12T12:51:06.192Z,1.60
2023-11-12T12:53:36.931Z,1.40
2023-11-12T12:56:13.190Z,1.40
2023-11-12T12:58:42.281Z,1.60
2023-11-12T13:01:13.797Z,1.70
2023-11-12T13:03:47.142Z,1.40
2023-11-12T13:06:18.025Z,1.10
2023-11-12T13:08:51.028Z,1.70
2023-11-12T13:11:21.637Z,1.50
2023-11-12T13:13:54.722Z,1.50
2023-11-12T13:16:26.568Z,1.70
2023-11-12T13:19:05.561Z,1.60
2023-11-12T13:21:51.347Z,1.50
2023-11-12T13:24:27.878Z,1.40
2023-11-12T13:27:02.670Z,1.80
2023-11-12T13:29:43.825Z,1.60
2023-11-12T13:32:15.076Z,1.53
2023-11-12T13:34:49.683Z,1.60
2023-11-12T13:37:26.087Z,1.80
2023-11-12T13:39:56.077Z,1.53
2023-11-12T13:42:24.345Z,1.80
2023-11-12T13:44:59.852Z,1.90
2023-11-12T13:47:36.576Z,1.83
2023-11-12T13:50:14.931Z,2.00
2023-11-12T13:52:45.622Z,1.87
2023-11-12T13:55:23.308Z,1.87
2023-11-12T13:57:55.299Z,1.80
2023-11-12T14:00:32.336Z,2.00
2023-11-12T14:03:10.148Z,1.80
2023-11-12T14:05:39.193Z,2.20
2023-11-12T14:08:16.917Z,1.97
2023-11-12T14:10:57.264Z,2.20
2023-11-12T14:13:26.280Z,1.97
2023-11-12T14:16:01.835Z,2.10
2023-11-12T14:18:33.506Z,1.90
2023-11-12T14:21:07.450Z,1.80
2023-11-12T14:23:38.767Z,2.00
2023-11-12T14:26:12.648Z,2.50
2023-11-12T14:28:48.695Z,2.20
2023-11-12T14:31:21.940Z,2.17
2023-11-12T14:33:59.534Z,2.30
2023-11-12T14:36:28.727Z,2.03
2023-11-12T14:38:59.388Z,2.33
2023-11-12T14:41:28.663Z,2.00
2023-11-12T14:44:05.774Z,2.10
2023-11-12T14:46:48.247Z,2.30
2023-11-12T14:49:19.501Z,2.23
2023-11-12T14:51:49.209Z,2.17
2023-11-12T14:54:24.716Z,2.93
2023-11-12T14:56:55.554Z,2.70
2023-11-12T14:59:24.294Z,2.20
2023-11-12T15:01:56.113Z,2.20
2023-11-12T15:04:36.559Z,2.10
2023-11-12T15:07:05.575Z,1.80
2023-11-12T15:09:36.952Z,1.83
2023-11-12T15:12:06.701Z,2.00
2023-11-12T15:14:35.751Z,2.40
2023-11-12T15:17:14.855Z,2.20
2023-11-12T15:19:45.100Z,2.00
2023-11-12T15:22:14.926Z,2.33
2023-11-12T15:24:45.931Z,2.10
2023-11-12T15:27:16.022Z,1.93
2023-11-12T15:29:48.555Z,2.23
2023-11-12T15:32:20.825Z,2.10
2023-11-12T15:34:49.914Z,2.00
2023-11-12T15:37:20.692Z,2.13
2023-11-12T15:39:51.438Z,2.93
2023-11-12T15:42:19.517Z,3.60
2023-11-12T15:44:51.912Z,3.60
2023-11-12T15:47:22.027Z,3.90
2023-11-12T15:50:00.611Z,3.00
2023-11-12T15:52:31.498Z,3.73
2023-11-12T15:55:15.698Z,2.90
2023-11-12T15:57:47.345Z,4.37
2023-11-12T16:00:22.957Z,5.40
2023-11-12T16:03:08.904Z,9.40
2023-11-12T16:05:56.834Z,14.23
2023-11-12T16:08:25.469Z,4.00
2023-11-12T16:10:56.931Z,3.67
2023-11-12T16:13:27.393Z,3.60
2023-11-12T16:16:05.337Z,3.17
2023-11-12T16:18:43.135Z,2.50
2023-11-12T16:21:22.388Z,2.70
2023-11-12T16:23:50.969Z,2.53
2023-11-12T16:26:25.555Z,2.90
2023-11-12T16:28:53.981Z,2.90
2023-11-12T16:31:25.274Z,2.30
2023-11-12T16:33:55.669Z,2.47
2023-11-12T16:36:25.297Z,2.90
2023-11-12T16:38:54.963Z,2.53
2023-11-12T16:41:32.210Z,2.90
2023-11-12T16:44:02.258Z,2.67
2023-11-12T16:46:36.912Z,2.80
2023-11-12T16:49:06.859Z,2.53
2023-11-12T16:51:36.587Z,2.60
2023-11-12T16:54:12.543Z,2.50
2023-11-12T16:56:42.234Z,2.40
2023-11-12T16:59:17.240Z,2.50
2023-11-12T17:04:35.405Z,2.93
2023-11-12T17:07:07.191Z,2.90
2023-11-12T17:09:44.384Z,3.73
2023-11-12T17:12:25.451Z,3.70
2023-11-12T17:15:01.483Z,3.13
2023-11-12T17:17:31.703Z,3.40
2023-11-12T17:20:04.892Z,3.43
2023-11-12T17:22:38.110Z,2.77
2023-11-12T17:25:14.055Z,2.53
2023-11-12T17:27:55.550Z,3.20
2023-11-12T17:30:35.834Z,3.40
2023-11-12T17:33:05.346Z,2.87
2023-11-12T17:35:35.770Z,3.17
2023-11-12T17:38:05.868Z,2.70
2023-11-12T17:40:41.216Z,3.10
2023-11-12T17:43:14.007Z,3.50
2023-11-12T17:45:44.175Z,4.13
2023-11-12T17:48:14.052Z,3.43
2023-11-12T17:50:45.046Z,3.60
2023-11-12T17:53:17.040Z,3.33
2023-11-12T17:55:47.121Z,3.03
2023-11-12T17:58:22.979Z,3.07
2023-11-12T18:00:54.565Z,3.30
2023-11-12T18:03:25.986Z,3.20
2023-11-12T18:05:58.538Z,3.30
2023-11-12T18:08:29.464Z,3.13
2023-11-12T18:11:15.177Z,3.40
2023-11-12T18:13:46.471Z,3.80
2023-11-12T18:16:17.354Z,4.20
2023-11-12T18:18:51.643Z,4.50
2023-11-12T18:21:26.464Z,4.00
2023-11-12T18:23:57.318Z,4.30
2023-11-12T18:26:26.661Z,4.90
2023-11-12T18:28:57.446Z,4.37
2023-11-12T18:31:26.614Z,3.40
2023-11-12T18:33:56.147Z,3.63
2023-11-12T18:36:35.880Z,3.77
2023-11-12T18:39:03.069Z,3.30
2023-11-12T18:41:41.077Z,3.30
2023-11-12T18:44:17.265Z,3.40
2023-11-12T18:46:47.826Z,3.67
2023-11-12T18:49:17.374Z,4.53
2023-11-12T18:51:57.362Z,4.80
2023-11-12T18:54:31.874Z,5.90
2023-11-12T18:57:08.747Z,4.80
2023-11-12T18:59:39.279Z,4.13
2023-11-12T19:02:07.881Z,3.77
2023-11-12T19:04:45.778Z,4.00
2023-11-12T19:07:18.090Z,4.50
2023-11-12T19:09:49.045Z,3.70
2023-11-12T19:12:25.878Z,3.83
2023-11-12T19:14:59.992Z,3.90
2023-11-12T19:17:30.747Z,3.63
2023-11-12T19:20:06.371Z,3.70
2023-11-12T19:22:36.069Z,4.33
2023-11-12T19:25:10.211Z,3.80
2023-11-12T19:27:43.562Z,3.80
2023-11-12T19:30:17.258Z,3.87
2023-11-12T19:32:48.680Z,3.93
2023-11-12T19:35:19.970Z,3.87
2023-11-12T19:37:48.609Z,3.87
2023-11-12T19:40:31.132Z,4.13
2023-11-12T19:43:07.020Z,4.00
2023-11-12T19:45:38.373Z,4.43
2023-11-12T19:48:09.420Z,4.83
2023-11-12T19:50:45.705Z,4.20
2023-11-12T19:53:15.773Z,5.17
2023-11-12T19:55:45.444Z,4.30
2023-11-12T19:58:22.420Z,3.77
2023-11-12T20:00:58.779Z,4.20
2023-11-12T20:06:23.993Z,3.63
2023-11-12T20:09:00.867Z,5.30
2023-11-12T20:11:33.803Z,5.00
2023-11-12T20:14:17.295Z,5.33
2023-11-12T20:16:49.415Z,7.00
2023-11-12T20:19:26.096Z,5.67
2023-11-12T20:21:57.575Z,4.40
2023-11-12T20:24:35.363Z,4.30
2023-11-12T20:29:50.361Z,4.70
2023-11-12T20:32:30.320Z,4.20
2023-11-12T20:35:00.640Z,4.63
2023-11-12T20:37:31.322Z,4.67
2023-11-12T20:40:06.360Z,4.77
2023-11-12T20:42:35.105Z,4.70
2023-11-12T20:45:11.582Z,4.37
2023-11-12T20:47:45.451Z,5.30
2023-11-12T20:50:20.063Z,5.40
2023-11-12T20:52:50.325Z,6.60
2023-11-12T20:55:17.841Z,6.87
2023-11-12T20:57:52.535Z,6.90
2023-11-12T21:00:25.142Z,7.43
2023-11-12T21:03:14.490Z,6.07
2023-11-12T21:05:48.778Z,6.33
2023-11-12T21:08:18.815Z,6.30
2023-11-12T21:10:52.759Z,6.60
2023-11-12T21:13:20.878Z,5.47
2023-11-12T21:15:55.102Z,6.23
2023-11-12T21:18:27.313Z,5.97
2023-11-12T21:20:55.821Z,4.83
2023-11-12T21:23:25.580Z,5.50
2023-11-12T21:25:57.121Z,5.43
2023-11-12T21:28:26.241Z,4.90
2023-11-12T21:30:57.147Z,4.97
2023-11-12T21:33:39.055Z,5.40
2023-11-12T21:36:15.216Z,6.63
2023-11-12T21:38:54.194Z,6.17
2023-11-12T21:41:29.073Z,7.10
2023-11-12T21:43:59.849Z,7.30
2023-11-12T21:46:32.560Z,7.60
2023-11-12T21:49:10.382Z,7.63
2023-11-12T21:51:46.528Z,5.70
2023-11-12T21:54:23.916Z,4.93
2023-11-12T21:56:53.847Z,5.60
2023-11-12T21:59:24.650Z,4.90
2023-11-12T22:01:56.573Z,4.47
2023-11-12T22:04:27.266Z,4.63
2023-11-12T22:06:56.589Z,3.90
2023-11-12T22:09:28.590Z,4.80
2023-11-12T22:12:12.784Z,4.50
2023-11-12T22:14:44.255Z,4.53
2023-11-12T22:17:15.652Z,4.30
2023-11-12T22:19:43.570Z,4.47
2023-11-12T22:22:11.956Z,4.17
2023-11-12T22:24:44.152Z,5.23
2023-11-12T22:27:12.285Z,6.90
2023-11-12T22:29:43.218Z,6.53
2023-11-12T22:34:58.977Z,5.43
2023-11-12T22:37:27.339Z,6.00
2023-11-12T22:39:58.367Z,4.63
2023-11-12T22:42:30.355Z,3.63
2023-11-12T22:45:08.906Z,3.97
2023-11-12T22:47:37.928Z,3.77
2023-11-12T22:50:18.834Z,3.87
2023-11-12T22:52:48.772Z,3.80
2023-11-12T22:55:21.388Z,4.40
2023-11-12T22:57:49.117Z,3.73
2023-11-12T23:00:43.632Z,3.90
2023-11-12T23:03:17.113Z,4.10
2023-11-12T23:05:53.399Z,3.90
2023-11-12T23:08:30.424Z,4.30
2023-11-12T23:11:01.904Z,4.07
2023-11-12T23:13:32.209Z,4.00
2023-11-12T23:16:09.230Z,5.03
2023-11-12T23:18:43.973Z,5.07
2023-11-12T23:21:12.885Z,5.83
2023-11-12T23:23:43.294Z,4.73
2023-11-12T23:26:10.770Z,5.10
2023-11-12T23:28:40.686Z,4.83
2023-11-12T23:31:11.822Z,3.77
2023-11-12T23:33:40.611Z,4.20
2023-11-12T23:36:13.630Z,4.27
2023-11-12T23:38:51.867Z,3.43
2023-11-12T23:41:22.554Z,3.80
2023-11-12T23:43:51.218Z,3.40
2023-11-12T23:46:21.893Z,3.37
2023-11-12T23:48:49.067Z,3.70
2023-11-12T23:51:18.990Z,3.33
2023-11-12T23:53:57.805Z,3.50
2023-11-12T23:56:28.060Z,3.77
2023-11-12T23:58:56.864Z,4.13
